Time;durP1;ratioP1;P1;durP2;ratioP2;P2;SDS_P1;SDS_P2;PMS_P1;PMS_P2;Temp;Humidity;BMP_temperature;BMP_pressure;BME280_temperature;BME280_humidity;BME280_pressure;Samples;Min_cycle;Max_cycle;Signal;HPM_P1;HPM_P2
2022/04/20 00:02:02;;;;;;;5.15;2.90;;;;;;;7.00;61.62;101283.88;4994815;28;20545;-72
2022/04/20 00:04:29;;;;;;;6.35;3.47;;;;;;;6.92;62.48;101284.97;5008987;28;20049;-72
2022/04/20 00:06:56;;;;;;;9.32;3.20;;;;;;;6.70;63.50;101288.19;5037873;28;20022;-71
2022/04/20 00:09:22;;;;;;;5.10;3.20;;;;;;;7.04;62.17;101292.47;5037792;28;20029;-72
2022/04/20 00:11:48;;;;;;;5.57;2.90;;;;;;;7.15;62.02;101287.78;5027838;28;20050;-72
2022/04/20 00:14:14;;;;;;;5.80;3.03;;;;;;;7.11;62.17;101289.63;4999105;28;20054;-73
2022/04/20 00:16:41;;;;;;;5.65;2.72;;;;;;;6.96;62.22;101286.59;4999678;28;20046;-72
2022/04/20 00:19:07;;;;;;;7.20;3.50;;;;;;;6.98;62.25;101287.44;5010428;28;20485;-72
2022/04/20 00:21:35;;;;;;;5.70;2.78;;;;;;;7.05;61.83;101291.56;5010959;28;20410;-72
2022/04/20 00:24:01;;;;;;;5.10;2.80;;;;;;;6.98;61.77;101295.25;4998542;28;20050;-72
2022/04/20 00:26:28;;;;;;;6.20;3.15;;;;;;;6.89;61.96;101288.53;4994523;28;20109;-72
2022/04/20 00:28:54;;;;;;;6.15;3.10;;;;;;;6.39;63.54;101287.28;5003007;28;20104;-72
2022/04/20 00:31:21;;;;;;;6.57;2.95;;;;;;;6.64;63.06;101293.56;5011619;28;20046;-72
2022/04/20 00:33:47;;;;;;;5.95;3.33;;;;;;;6.38;63.35;101288.19;5007252;28;20104;-72
2022/04/20 00:36:13;;;;;;;5.15;3.00;;;;;;;6.37;63.38;101286.47;5006007;28;20045;-72
2022/04/20 00:38:41;;;;;;;6.45;2.67;;;;;;;6.57;62.31;101286.81;5002727;28;20050;-72
2022/04/20 00:41:08;;;;;;;6.15;3.08;;;;;;;6.54;61.57;101289.47;5008842;28;20046;-72
2022/04/20 00:43:34;;;;;;;7.38;3.08;;;;;;;6.46;62.44;101288.84;5004685;28;20411;-72
2022/04/20 00:46:01;;;;;;;8.90;3.17;;;;;;;6.19;63.83;101289.53;5004948;28;20045;-72
2022/04/20 00:48:28;;;;;;;6.28;3.03;;;;;;;6.48;62.74;101289.63;5010409;28;20038;-72
2022/04/20 00:50:55;;;;;;;5.07;2.78;;;;;;;6.45;62.96;101283.66;5008305;28;20043;-72
2022/04/20 00:53:21;;;;;;;5.15;3.17;;;;;;;6.35;62.88;101283.91;5002699;28;20530;-72
2022/04/20 00:55:49;;;;;;;6.38;2.97;;;;;;;6.47;62.60;101293.13;5011904;28;20176;-72
2022/04/20 00:58:15;;;;;;;4.88;2.67;;;;;;;6.31;62.50;101286.63;5002835;28;20054;-72
2022/04/20 01:00:41;;;;;;;7.35;3.40;;;;;;;6.29;63.06;101284.03;5007377;28;20109;-72
2022/04/20 01:03:08;;;;;;;6.35;3.40;;;;;;;6.20;63.98;101291.25;5009043;28;20096;-72
2022/04/20 01:05:34;;;;;;;4.60;2.80;;;;;;;6.14;64.44;101293.97;5008404;28;20046;-72
2022/04/20 01:08:00;;;;;;;5.90;3.28;;;;;;;5.87;65.67;101285.94;5009507;28;20080;-72
2022/04/20 01:10:27;;;;;;;5.80;3.05;;;;;;;5.74;65.67;101294.91;5008843;28;20046;-72
2022/04/20 01:12:55;;;;;;;7.57;2.90;;;;;;;5.84;65.66;101286.00;5009623;28;20096;-72
2022/04/20 01:15:21;;;;;;;7.22;3.10;;;;;;;5.72;65.78;101288.91;4990615;28;20490;-73
2022/04/20 01:17:48;;;;;;;5.70;3.20;;;;;;;5.68;66.04;101292.47;4981606;28;20522;-72
2022/04/20 01:20:15;;;;;;;6.28;3.20;;;;;;;5.80;66.21;101294.75;4995942;28;20513;-72
2022/04/20 01:22:43;;;;;;;6.75;3.25;;;;;;;5.76;66.73;101295.75;5001648;28;20053;-72
2022/04/20 01:25:10;;;;;;;4.95;2.90;;;;;;;5.53;67.70;101300.59;5007827;28;20038;-72
2022/04/20 01:27:37;;;;;;;6.78;3.00;;;;;;;5.72;67.69;101303.66;5009803;28;20061;-72
2022/04/20 01:30:05;;;;;;;5.47;2.97;;;;;;;5.82;67.92;101299.94;5007810;28;20643;-72
2022/04/20 01:32:31;;;;;;;4.45;2.90;;;;;;;6.18;66.50;101298.22;4991585;28;20677;-72
2022/04/20 01:34:58;;;;;;;5.78;2.95;;;;;;;6.28;66.42;101297.94;5001835;28;20490;-72
2022/04/20 01:37:24;;;;;;;5.60;3.15;;;;;;;6.31;66.00;101297.91;4993192;28;20097;-72
2022/04/20 01:39:52;;;;;;;6.47;3.17;;;;;;;6.15;66.26;101295.69;4986817;28;20106;-72
2022/04/20 01:42:18;;;;;;;5.32;3.05;;;;;;;5.83;66.75;101297.31;4989580;28;20120;-72
2022/04/20 01:44:44;;;;;;;5.05;2.63;;;;;;;5.71;67.27;101296.72;4988838;28;20470;-72
2022/04/20 01:47:12;;;;;;;6.32;2.92;;;;;;;5.83;67.20;101289.50;4994750;28;20076;-72
2022/04/20 01:49:38;;;;;;;5.93;3.03;;;;;;;5.96;67.25;101284.88;4995720;28;20056;-72
2022/04/20 01:52:04;;;;;;;9.50;2.85;;;;;;;5.90;67.72;101289.38;4995197;28;20112;-72
2022/04/20 01:54:31;;;;;;;6.90;3.20;;;;;;;5.78;67.69;101298.28;5005805;28;20399;-72
2022/04/20 01:56:58;;;;;;;5.50;2.85;;;;;;;5.62;67.61;101294.31;5009026;28;20038;-72
2022/04/20 01:59:25;;;;;;;5.10;3.08;;;;;;;5.83;67.25;101297.31;5005883;28;20046;-72
2022/04/20 02:04:35;;;;;;;4.25;2.88;;;;;;;5.85;67.67;101279.91;4990593;28;20430;-72
2022/04/20 02:07:02;;;;;;;6.65;3.53;;;;;;;5.53;68.60;101289.34;5019536;28;20478;-72
2022/04/20 02:09:28;;;;;;;5.15;2.75;;;;;;;5.60;68.24;101283.97;4986658;28;20054;-71
2022/04/20 02:11:54;;;;;;;5.93;3.13;;;;;;;5.44;68.57;101285.19;4989426;28;20050;-71
2022/04/20 02:14:22;;;;;;;5.10;2.95;;;;;;;5.38;68.81;101277.53;4988811;28;20120;-71
2022/04/20 02:16:49;;;;;;;6.20;2.85;;;;;;;5.45;68.78;101271.31;4986227;28;20451;-70
2022/04/20 02:19:15;;;;;;;7.15;3.05;;;;;;;5.40;68.89;101276.59;4998317;28;20546;-71
2022/04/20 02:21:42;;;;;;;4.95;3.25;;;;;;;5.32;69.21;101275.91;5006312;28;20490;-71
2022/04/20 02:24:10;;;;;;;6.22;3.20;;;;;;;5.51;68.83;101281.56;4988872;28;20057;-71
2022/04/20 02:26:36;;;;;;;5.00;2.88;;;;;;;5.74;68.24;101279.28;4989237;28;20065;-71
2022/04/20 02:29:03;;;;;;;5.75;3.08;;;;;;;5.84;68.10;101295.53;4987218;28;20104;-71
2022/04/20 02:31:31;;;;;;;6.63;2.78;;;;;;;5.81;67.69;101290.41;4988712;28;20046;-71
2022/04/20 02:33:57;;;;;;;6.47;2.95;;;;;;;5.80;67.63;101289.56;5007902;28;20042;-71
2022/04/20 02:36:23;;;;;;;8.00;2.65;;;;;;;5.62;67.95;101283.91;5002380;28;20054;-71
2022/04/20 02:38:51;;;;;;;5.28;2.95;;;;;;;5.50;68.05;101292.88;4996247;28;20050;-71
2022/04/20 02:41:17;;;;;;;6.22;3.47;;;;;;;5.59;67.94;101282.25;5006433;28;20169;-71
2022/04/20 02:43:44;;;;;;;5.70;2.92;;;;;;;5.68;67.47;101286.41;5008904;28;20049;-71
2022/04/20 02:46:10;;;;;;;7.20;3.20;;;;;;;5.73;67.57;101276.72;5007238;28;20099;-71
2022/04/20 02:48:38;;;;;;;5.75;3.42;;;;;;;5.86;67.03;101278.19;4995251;28;20096;-71
2022/04/20 02:51:04;;;;;;;4.18;2.70;;;;;;;5.87;66.95;101279.91;5004605;28;20042;-71
2022/04/20 02:53:31;;;;;;;7.20;2.97;;;;;;;5.77;66.58;101284.44;5003295;28;20053;-71
2022/04/20 02:55:57;;;;;;;5.53;2.83;;;;;;;5.79;66.25;101285.25;5007490;28;20399;-71
2022/04/20 02:58:23;;;;;;;5.93;2.80;;;;;;;5.50;67.50;101282.47;5006855;28;20414;-71
2022/04/20 03:00:50;;;;;;;7.60;2.90;;;;;;;5.44;68.05;101264.38;4986813;28;20105;-71
2022/04/20 03:03:16;;;;;;;9.18;3.35;;;;;;;5.74;66.89;101253.28;5009852;28;20105;-71
2022/04/20 03:05:44;;;;;;;4.80;2.72;;;;;;;6.13;65.05;101269.72;4994268;28;20100;-71
2022/04/20 03:08:10;;;;;;;4.40;3.03;;;;;;;5.84;66.04;101286.00;5007800;28;20115;-71
2022/04/20 03:10:37;;;;;;;6.03;3.30;;;;;;;5.23;69.31;101277.84;5016229;28;20493;-71
2022/04/20 03:13:03;;;;;;;5.43;3.20;;;;;;;5.36;69.00;101279.28;4990204;28;20046;-71
2022/04/20 03:15:29;;;;;;;4.60;2.80;;;;;;;5.47;68.33;101272.09;4987838;28;20522;-71
2022/04/20 03:17:57;;;;;;;6.65;2.83;;;;;;;5.57;67.92;101267.56;5000101;28;20046;-71
2022/04/20 03:20:24;;;;;;;8.43;3.58;;;;;;;5.76;67.12;101267.13;5006058;28;20096;-71
2022/04/20 03:22:52;;;;;;;4.50;2.47;;;;;;;5.58;67.19;101277.94;5000753;28;20469;-71
2022/04/20 03:25:18;;;;;;;4.82;2.67;;;;;;;5.43;67.39;101282.63;4987457;28;20046;-71
2022/04/20 03:27:45;;;;;;;6.10;3.03;;;;;;;5.56;67.14;101274.53;4990556;28;20042;-71
2022/04/20 03:30:12;;;;;;;4.78;2.55;;;;;;;5.63;67.40;101270.03;5007613;28;20050;-71
2022/04/20 03:32:39;;;;;;;5.57;2.72;;;;;;;5.70;67.02;101274.19;5007818;28;20141;-71
2022/04/20 03:35:06;;;;;;;7.72;2.53;;;;;;;5.62;67.24;101279.56;5003276;28;20092;-72
2022/04/20 03:37:33;;;;;;;5.85;2.95;;;;;;;5.57;66.95;101281.44;5001889;28;20045;-71
2022/04/20 03:40:00;;;;;;;5.15;2.95;;;;;;;5.63;66.83;101276.09;5005792;28;20108;-71
2022/04/20 03:42:27;;;;;;;4.85;2.90;;;;;;;5.32;67.83;101272.47;5005503;28;20050;-71
2022/04/20 03:44:53;;;;;;;8.15;2.90;;;;;;;5.14;68.22;101285.84;5015505;28;20074;-71
2022/04/20 03:47:20;;;;;;;5.93;2.65;;;;;;;4.62;69.68;101281.66;4995251;28;20046;-71
2022/04/20 03:49:46;;;;;;;7.70;3.42;;;;;;;4.73;70.15;101284.91;5006593;28;20406;-71
2022/04/20 03:52:12;;;;;;;9.82;2.90;;;;;;;4.78;70.36;101279.63;5001074;28;20077;-71
2022/04/20 03:54:38;;;;;;;8.63;3.45;;;;;;;5.18;69.65;101283.16;5007097;28;20049;-71
2022/04/20 03:57:09;;;;;;;5.95;3.20;;;;;;;5.14;69.67;101285.84;5006976;28;20057;-71
2022/04/20 03:59:36;;;;;;;6.57;3.20;;;;;;;5.29;69.60;101291.56;5006692;28;20120;-71
2022/04/20 04:02:04;;;;;;;7.43;3.33;;;;;;;5.32;69.21;101288.06;5023548;28;20111;-71
2022/04/20 04:04:31;;;;;;;5.72;2.97;;;;;;;5.34;69.40;101301.88;4991220;28;20050;-71
2022/04/20 04:06:57;;;;;;;8.00;3.17;;;;;;;5.23;69.52;101301.25;5000621;28;20050;-71
2022/04/20 04:09:24;;;;;;;5.50;3.20;;;;;;;5.27;69.61;101293.38;5006547;28;20418;-71
2022/04/20 04:11:51;;;;;;;5.90;3.10;;;;;;;5.32;68.91;101283.69;5025948;28;20102;-71
2022/04/20 04:14:19;;;;;;;8.95;3.40;;;;;;;5.44;68.67;101285.19;5019673;28;20049;-71
2022/04/20 04:16:45;;;;;;;4.82;2.70;;;;;;;5.52;68.43;101291.09;4993796;28;20047;-71
2022/04/20 04:19:12;;;;;;;7.45;3.47;;;;;;;5.58;68.51;101295.31;4994876;28;20045;-71
2022/04/20 04:21:39;;;;;;;6.28;2.80;;;;;;;5.42;68.87;101292.19;4989971;28;20561;-71
2022/04/20 04:24:07;;;;;;;8.93;3.60;;;;;;;5.61;68.32;101284.81;4989071;28;20042;-71
2022/04/20 04:26:33;;;;;;;8.10;3.40;;;;;;;5.48;68.72;101294.63;4990694;28;20105;-71
2022/04/20 04:29:00;;;;;;;6.07;3.03;;;;;;;5.57;68.67;101294.44;4989695;28;20396;-71
2022/04/20 04:31:28;;;;;;;7.85;3.25;;;;;;;5.38;69.48;101295.72;4991427;28;20042;-71
2022/04/20 04:33:55;;;;;;;5.13;3.20;;;;;;;5.36;69.87;101300.09;4991099;28;20042;-71
2022/04/20 04:36:21;;;;;;;6.22;3.35;;;;;;;5.19;70.62;101299.59;4990120;28;20046;-70
2022/04/20 04:38:48;;;;;;;6.90;3.33;;;;;;;5.15;70.97;101297.94;5008849;28;20046;-70
2022/04/20 04:41:15;;;;;;;5.78;3.20;;;;;;;5.43;70.55;101301.69;5010069;28;20490;-70
2022/04/20 04:43:41;;;;;;;7.28;2.97;;;;;;;5.51;69.74;101307.56;5005430;28;20054;-71
2022/04/20 04:48:53;;;;;;;6.47;3.30;;;;;;;5.46;70.20;101301.63;5001312;28;20052;-70
2022/04/20 04:51:19;;;;;;;12.07;3.78;;;;;;;5.37;71.02;101294.00;5012911;28;20066;-70
2022/04/20 04:53:46;;;;;;;6.38;3.45;;;;;;;5.75;70.38;101301.84;5008521;28;20049;-70
2022/04/20 04:56:12;;;;;;;7.93;3.45;;;;;;;5.39;71.41;101302.66;5015144;28;20104;-70
2022/04/20 04:58:38;;;;;;;10.45;3.70;;;;;;;5.85;70.09;101303.31;4991129;28;20745;-70
2022/04/20 05:01:05;;;;;;;12.02;3.95;;;;;;;5.96;69.86;101300.50;4989316;28;20088;-70
2022/04/20 05:03:31;;;;;;;14.70;3.75;;;;;;;6.08;70.33;101299.34;4990075;28;20054;-70
2022/04/20 05:05:59;;;;;;;7.95;3.83;;;;;;;6.29;70.02;101312.69;4990116;28;20457;-70
2022/04/20 05:08:25;;;;;;;8.30;3.72;;;;;;;6.26;70.51;101311.91;4986634;28;20077;-70
2022/04/20 05:10:52;;;;;;;6.47;4.00;;;;;;;5.79;72.91;101313.88;4987996;28;20054;-72
2022/04/20 05:13:18;;;;;;;10.73;4.30;;;;;;;5.87;73.29;101314.56;4990383;28;20149;-71
2022/04/20 05:15:44;;;;;;;13.45;4.72;;;;;;;6.31;72.24;101320.47;4990092;28;20519;-71
2022/04/20 05:18:11;;;;;;;8.30;4.68;;;;;;;6.70;71.07;101314.22;5000720;28;20046;-71
2022/04/20 05:20:37;;;;;;;8.63;5.30;;;;;;;6.68;71.83;101313.44;5000982;28;20050;-71
2022/04/20 05:23:08;;;;;;;7.68;4.57;;;;;;;6.32;72.33;101309.16;4997059;28;20046;-71
2022/04/20 05:25:35;;;;;;;6.15;3.88;;;;;;;6.67;71.90;101306.50;4994714;28;20086;-71
2022/04/20 05:28:01;;;;;;;9.52;4.38;;;;;;;6.69;72.28;101314.25;4990144;28;20046;-72
2022/04/20 05:30:28;;;;;;;8.93;4.38;;;;;;;6.92;72.31;101311.91;4988481;28;20100;-72
2022/04/20 05:32:55;;;;;;;8.82;4.00;;;;;;;7.14;70.99;101323.44;4982714;28;20046;-71
2022/04/20 05:35:21;;;;;;;5.75;3.30;;;;;;;7.19;70.53;101325.94;5016201;28;20045;-71
2022/04/20 05:43:17;;;;;;;9.90;4.18;;;;;;;7.26;70.44;101317.88;5018652;28;20148;-71
2022/04/20 05:45:43;;;;;;;10.85;5.18;;;;;;;7.54;70.08;101312.69;5019155;28;20058;-71
2022/04/20 05:48:10;;;;;;;9.27;5.32;;;;;;;7.70;69.63;101305.25;5003444;28;20046;-71
2022/04/20 05:50:36;;;;;;;8.82;4.85;;;;;;;7.49;69.64;101311.13;4990885;28;20057;-71
2022/04/20 05:53:02;;;;;;;12.38;4.53;;;;;;;7.49;69.57;101316.34;4991085;28;20046;-71
2022/04/20 05:55:29;;;;;;;10.23;5.43;;;;;;;7.56;69.33;101318.75;4989153;28;20104;-71
2022/04/20 05:57:56;;;;;;;7.63;5.47;;;;;;;7.33;70.38;101318.56;4990094;28;20039;-71
2022/04/20 06:00:23;;;;;;;13.13;8.45;;;;;;;7.57;69.80;101322.22;5007988;28;20461;-71
2022/04/20 06:02:49;;;;;;;11.63;6.30;;;;;;;7.83;69.40;101325.69;5009286;28;20127;-71
2022/04/20 06:05:15;;;;;;;13.40;4.78;;;;;;;7.75;69.27;101319.91;5009475;28;20395;-71
2022/04/20 06:07:42;;;;;;;13.05;5.90;;;;;;;8.08;68.62;101310.13;5009805;28;20045;-71
2022/04/20 06:10:09;;;;;;;10.20;5.18;;;;;;;8.28;68.40;101312.97;5011238;28;20042;-71
2022/04/20 06:12:36;;;;;;;8.30;4.53;;;;;;;8.49;68.25;101308.81;5007796;28;20104;-71
2022/04/20 06:15:05;;;;;;;14.48;4.85;;;;;;;8.40;67.42;101309.09;5007438;28;20054;-71
2022/04/20 06:17:32;;;;;;;10.43;6.07;;;;;;;8.41;68.06;101302.13;5004231;28;20077;-71
2022/04/20 06:19:58;;;;;;;7.60;5.20;;;;;;;8.88;67.97;101308.31;5001869;28;20046;-71
2022/04/20 06:22:25;;;;;;;9.95;4.72;;;;;;;8.76;67.85;101307.81;4999102;28;20391;-71
2022/04/20 06:24:52;;;;;;;9.93;4.50;;;;;;;9.20;68.80;101306.22;5002442;28;20655;-71
2022/04/20 06:27:18;;;;;;;10.60;4.22;;;;;;;9.84;65.48;101295.91;5007401;28;20050;-71
2022/04/20 06:29:45;;;;;;;6.28;4.15;;;;;;;9.93;63.81;101294.69;5006939;28;20092;-71
2022/04/20 06:32:12;;;;;;;8.02;4.45;;;;;;;9.37;64.30;101303.00;5006002;28;20046;-71
2022/04/20 06:34:39;;;;;;;8.35;4.25;;;;;;;9.69;65.48;101302.59;4987521;28;20442;-69
2022/04/20 06:37:06;;;;;;;9.75;3.83;;;;;;;9.99;63.26;101297.06;4982145;28;20046;-69
2022/04/20 06:39:32;;;;;;;9.02;3.90;;;;;;;10.35;64.24;101306.06;4995535;28;20058;-69
2022/04/20 06:41:58;;;;;;;11.70;4.03;;;;;;;10.30;62.26;101322.91;4987371;28;20069;-69
2022/04/20 06:44:25;;;;;;;6.10;3.97;;;;;;;10.51;63.23;101330.72;4983923;28;20133;-69
2022/04/20 06:46:51;;;;;;;9.77;3.90;;;;;;;10.79;61.51;101332.19;4989663;28;20450;-69
2022/04/20 06:49:18;;;;;;;7.82;4.20;;;;;;;10.39;62.19;101323.38;5000089;28;20092;-69
2022/04/20 06:59:58;;;;;;;8.30;4.20;;;;;;;10.56;62.51;101320.91;4978115;28;20518;-69
2022/04/20 07:02:25;;;;;;;6.60;3.67;;;;;;;10.80;60.88;101318.13;4988634;28;20047;-69
2022/04/20 07:04:52;;;;;;;8.50;3.80;;;;;;;10.72;61.27;101316.69;4988004;28;20093;-69
2022/04/20 07:07:19;;;;;;;8.52;3.95;;;;;;;10.83;62.41;101312.78;4986201;28;20769;-69
2022/04/20 07:09:45;;;;;;;7.28;3.88;;;;;;;10.77;62.40;101324.38;4992020;28;20049;-69
2022/04/20 07:12:11;;;;;;;7.57;4.28;;;;;;;10.64;62.31;101312.72;4987438;28;20046;-68
2022/04/20 07:14:38;;;;;;;7.80;3.88;;;;;;;10.71;61.65;101315.00;4986520;28;20050;-68
2022/04/20 07:17:06;;;;;;;7.05;4.03;;;;;;;10.87;62.29;101309.06;4987875;28;20046;-68
2022/04/20 07:19:32;;;;;;;12.40;4.30;;;;;;;10.98;62.49;101317.31;4987272;28;20050;-69
2022/04/20 07:22:00;;;;;;;6.30;3.72;;;;;;;11.04;62.49;101317.94;4991184;28;20050;-68
2022/04/20 07:24:26;;;;;;;7.88;3.97;;;;;;;11.31;61.07;101323.69;4991277;28;20050;-69
2022/04/20 07:26:53;;;;;;;11.82;6.10;;;;;;;11.26;61.59;101317.81;4987449;28;20051;-69
2022/04/20 07:29:19;;;;;;;11.77;4.68;;;;;;;11.40;61.40;101322.44;5001352;28;20042;-69
2022/04/20 07:31:46;;;;;;;9.63;4.50;;;;;;;11.30;61.95;101311.50;5007664;28;20172;-69
2022/04/20 07:34:12;;;;;;;9.18;3.95;;;;;;;11.44;61.48;101311.72;5007420;28;20062;-70
2022/04/20 07:36:39;;;;;;;6.07;3.97;;;;;;;11.49;61.29;101304.47;5006894;28;20074;-70
2022/04/20 07:39:06;;;;;;;7.40;4.18;;;;;;;11.72;60.90;101290.28;4993118;28;20046;-70
2022/04/20 07:41:33;;;;;;;8.23;5.18;;;;;;;12.19;61.07;101293.25;5006137;28;20659;-70
2022/04/20 07:43:59;;;;;;;8.65;5.00;;;;;;;12.34;59.86;101307.44;5007847;28;20050;-69
2022/04/20 07:46:26;;;;;;;11.63;4.57;;;;;;;12.87;58.78;101309.94;5005226;28;20110;-69
2022/04/20 07:48:52;;;;;;;6.78;4.55;;;;;;;14.24;56.22;101301.44;5027699;28;20041;-69
2022/04/20 07:51:18;;;;;;;9.35;4.40;;;;;;;14.85;54.05;101298.72;5013754;28;20801;-70
2022/04/20 07:53:45;;;;;;;9.23;4.40;;;;;;;15.49;51.37;101298.25;4990898;28;20058;-69
2022/04/20 07:56:12;;;;;;;9.27;5.00;;;;;;;16.22;49.87;101298.75;4990665;28;20046;-69
2022/04/20 07:58:39;;;;;;;7.15;4.25;;;;;;;16.45;51.01;101299.88;4990320;28;20050;-69
2022/04/20 08:01:05;;;;;;;10.15;4.60;;;;;;;16.80;51.96;101297.53;4990687;28;20046;-70
2022/04/20 08:03:32;;;;;;;6.65;4.35;;;;;;;16.60;47.24;101298.88;4990726;28;20572;-69
2022/04/20 08:05:59;;;;;;;7.90;4.70;;;;;;;16.19;48.55;101291.03;4990811;28;20050;-69
2022/04/20 08:08:26;;;;;;;8.25;4.63;;;;;;;15.24;49.94;101298.06;5007769;28;20065;-69
2022/04/20 08:10:52;;;;;;;8.23;4.43;;;;;;;15.57;49.33;101300.41;5004635;28;20641;-69
2022/04/20 08:16:04;;;;;;;6.97;5.13;;;;;;;17.26;48.82;101288.06;4997682;28;20069;-69
2022/04/20 08:18:30;;;;;;;7.20;4.47;;;;;;;17.18;49.00;101295.72;4997501;28;20136;-70
2022/04/20 08:20:57;;;;;;;7.45;4.50;;;;;;;17.10;46.22;101299.88;5003509;28;20101;-69
2022/04/20 08:23:26;;;;;;;8.73;4.68;;;;;;;17.52;46.61;101297.66;5005136;28;20498;-69
2022/04/20 08:25:53;;;;;;;9.77;4.53;;;;;;;18.24;46.70;101298.56;5004968;28;20053;-69
2022/04/20 08:28:20;;;;;;;6.88;4.55;;;;;;;18.14;45.37;101294.06;5029410;28;20054;-69
2022/04/20 08:30:47;;;;;;;12.13;5.47;;;;;;;18.49;43.88;101289.59;5002691;28;20680;-69
2022/04/20 08:33:13;;;;;;;7.35;4.00;;;;;;;19.07;43.39;101291.28;4998620;28;20046;-69
2022/04/20 08:35:39;;;;;;;8.18;4.00;;;;;;;18.99;42.02;101280.44;5009895;28;20046;-69
2022/04/20 08:38:06;;;;;;;8.50;4.30;;;;;;;19.51;42.17;101276.34;5001143;28;20073;-69
2022/04/20 08:40:33;;;;;;;8.15;4.38;;;;;;;19.74;43.41;101277.97;5005272;28;20079;-69
2022/04/20 08:43:03;;;;;;;7.38;4.32;;;;;;;20.00;39.27;101270.50;5009540;28;20049;-69
2022/04/20 08:45:37;;;;;;;6.65;4.10;;;;;;;19.92;41.97;101273.78;5009041;28;20053;-69
2022/04/20 08:48:04;;;;;;;7.53;4.00;;;;;;;19.99;41.40;101258.19;5006034;28;20548;-69
2022/04/20 08:50:31;;;;;;;10.10;4.10;;;;;;;19.97;40.33;101263.63;5008962;28;20065;-69
2022/04/20 08:52:58;;;;;;;5.97;3.58;;;;;;;20.23;37.20;101266.78;5002656;28;20049;-69
2022/04/20 08:55:25;;;;;;;6.75;3.03;;;;;;;20.64;36.08;101260.66;5010288;28;20508;-69
2022/04/20 08:57:53;;;;;;;7.70;3.33;;;;;;;19.91;34.77;101266.81;4997056;28;20049;-71
2022/04/20 09:00:22;;;;;;;5.68;3.35;;;;;;;20.32;35.80;101264.22;5008586;28;20070;-70
2022/04/20 09:02:53;;;;;;;6.25;3.30;;;;;;;20.77;38.49;101262.13;5003555;28;20077;-70
2022/04/20 09:05:20;;;;;;;4.85;2.90;;;;;;;20.99;36.29;101268.28;5002780;28;20061;-70
2022/04/20 09:07:47;;;;;;;6.32;3.58;;;;;;;21.03;34.65;101262.53;4990355;28;20104;-70
2022/04/20 09:10:13;;;;;;;8.43;3.60;;;;;;;20.85;36.28;101266.78;4984020;28;20110;-70
2022/04/20 09:12:41;;;;;;;5.57;3.30;;;;;;;21.93;35.79;101257.22;4992506;28;20050;-70
2022/04/20 09:15:09;;;;;;;5.78;3.55;;;;;;;22.31;37.02;101250.03;4999376;28;20502;-70
2022/04/20 09:17:41;;;;;;;6.45;3.15;;;;;;;22.49;34.75;101258.16;4997354;28;20050;-70
2022/04/20 09:20:10;;;;;;;4.15;3.20;;;;;;;21.24;37.36;101258.03;4989533;28;20426;-70
2022/04/20 09:22:36;;;;;;;7.13;3.08;;;;;;;20.84;36.01;101262.47;4990746;28;20077;-69
2022/04/20 09:25:06;;;;;;;4.38;2.78;;;;;;;20.39;35.61;101254.75;5008611;28;20049;-69
2022/04/20 09:27:34;;;;;;;4.97;3.38;;;;;;;20.16;36.91;101249.63;4999574;28;20474;-69
2022/04/20 09:30:01;;;;;;;4.75;2.80;;;;;;;19.84;37.36;101247.00;4989530;28;20097;-70
2022/04/20 09:32:35;;;;;;;8.80;3.03;;;;;;;19.35;41.49;101250.94;4988833;28;20072;-70
2022/04/20 09:35:05;;;;;;;5.10;2.70;;;;;;;19.38;39.54;101248.03;4990210;28;20038;-67
2022/04/20 09:37:34;;;;;;;5.03;3.10;;;;;;;19.37;37.33;101248.97;5003240;28;20049;-67
2022/04/20 09:40:01;;;;;;;5.25;2.80;;;;;;;19.12;38.13;101238.63;5003351;28;20050;-67
2022/04/20 09:42:29;;;;;;;4.55;3.10;;;;;;;19.20;38.73;101243.34;4990522;28;20065;-67
2022/04/20 09:44:59;;;;;;;5.30;3.40;;;;;;;19.58;39.83;101246.47;4989892;28;20534;-67
2022/04/20 09:50:11;;;;;;;4.93;2.95;;;;;;;19.15;36.64;101240.19;4989095;28;20052;-67
2022/04/20 09:52:41;;;;;;;7.30;2.90;;;;;;;18.96;39.41;101252.28;5005593;28;20077;-67
2022/04/20 09:55:11;;;;;;;5.55;2.92;;;;;;;18.69;37.29;101245.63;5008291;28;20049;-67
2022/04/20 09:57:37;;;;;;;7.40;3.22;;;;;;;19.07;39.15;101232.00;5008986;28;20092;-67
2022/04/20 10:00:10;;;;;;;6.47;2.70;;;;;;;18.86;39.06;101221.22;5008629;28;20111;-67
2022/04/20 10:02:44;;;;;;;;;;;;;;;19.79;41.06;101222.56;5009397;28;20650;-67
2022/04/20 10:05:10;;;;;;;5.72;2.85;;;;;;;20.11;38.09;101231.38;5009088;28;19979;-67
2022/04/20 10:07:37;;;;;;;4.65;2.60;;;;;;;19.58;34.84;101229.66;5007202;28;20115;-67
2022/04/20 10:10:05;;;;;;;4.97;2.63;;;;;;;18.96;35.61;101230.16;5006407;28;20430;-67
2022/04/20 10:12:33;;;;;;;3.95;2.58;;;;;;;18.61;37.14;101221.47;4989993;28;20054;-67
2022/04/20 10:17:49;;;;;;;6.38;2.90;;;;;;;18.70;37.12;101226.88;4992811;28;20426;-67
2022/04/20 10:20:15;;;;;;;7.35;3.00;;;;;;;18.84;39.47;101228.50;5006894;28;20063;-67
2022/04/20 10:22:42;;;;;;;4.85;2.55;;;;;;;18.80;35.55;101216.41;4996100;28;20050;-67
2022/04/20 10:25:12;;;;;;;4.10;2.15;;;;;;;18.94;37.41;101213.50;4997189;28;20052;-67
2022/04/20 10:27:51;;;;;;;3.70;2.15;;;;;;;19.17;37.79;101222.31;5007696;28;20064;-67
2022/04/20 10:30:23;;;;;;;3.67;2.10;;;;;;;19.13;36.38;101213.75;4999088;28;20042;-67
2022/04/20 10:32:53;;;;;;;3.77;2.07;;;;;;;19.34;37.28;101208.50;4999490;28;20076;-67
2022/04/20 10:35:21;;;;;;;4.95;2.10;;;;;;;19.33;35.56;101210.31;4988160;28;20049;-67
2022/04/20 10:38:10;;;;;;;4.43;2.10;;;;;;;18.89;37.30;101215.66;4990161;28;20046;-67
2022/04/20 10:40:56;;;;;;;5.22;2.10;;;;;;;18.27;35.97;101218.69;5000347;28;20070;-67
2022/04/20 10:43:23;;;;;;;6.07;2.15;;;;;;;18.37;37.04;101217.03;5012617;28;20046;-67
2022/04/20 10:46:12;;;;;;;5.53;1.90;;;;;;;18.21;37.52;101213.88;4999991;28;20049;-67
2022/04/20 10:48:55;;;;;;;6.22;2.42;;;;;;;17.89;37.90;101212.78;5008228;28;20065;-67
2022/04/20 10:51:23;;;;;;;2.55;1.75;;;;;;;17.56;37.72;101204.63;5008311;28;20605;-67
2022/04/20 10:53:51;;;;;;;6.65;2.10;;;;;;;17.77;38.87;101205.75;4988962;28;20046;-67
2022/04/20 10:56:21;;;;;;;3.92;1.85;;;;;;;17.98;38.45;101207.63;4989732;28;20065;-67
2022/04/20 10:59:08;;;;;;;5.70;2.08;;;;;;;18.10;36.00;101205.88;5004997;28;20044;-67
2022/04/20 11:02:07;;;;;;;7.40;1.83;;;;;;;18.09;37.30;101201.53;5006310;28;20459;-67
2022/04/20 11:04:36;;;;;;;2.40;1.50;;;;;;;18.19;36.35;101210.47;5008306;28;20046;-67
2022/04/20 11:07:14;;;;;;;3.08;1.75;;;;;;;18.36;36.35;101204.75;5003979;28;20108;-67
2022/04/20 11:10:06;;;;;;;2.65;1.73;;;;;;;17.94;35.82;101198.22;5007629;28;20425;-67
2022/04/20 11:18:42;;;;;;;2.73;1.30;;;;;;;17.88;37.64;101203.16;5006870;28;20053;-67
2022/04/20 11:21:26;;;;;;;5.25;1.70;;;;;;;17.73;35.72;101201.63;5006682;28;20128;-67
2022/04/20 11:24:05;;;;;;;4.32;1.50;;;;;;;17.54;35.12;101204.75;5007599;28;20077;-67
2022/04/20 11:26:34;;;;;;;3.72;1.60;;;;;;;16.82;36.77;101201.13;4993979;28;20051;-67
2022/04/20 11:29:09;;;;;;;3.10;2.00;;;;;;;16.80;37.06;101213.63;4991170;28;20093;-67
2022/04/20 11:31:40;;;;;;;8.80;1.83;;;;;;;17.02;36.23;101216.47;4991729;28;20240;-67
2022/04/20 11:34:07;;;;;;;3.58;1.92;;;;;;;17.06;35.76;101205.66;4992285;28;20050;-67
2022/04/20 11:36:34;;;;;;;8.30;1.83;;;;;;;16.93;36.12;101210.94;5011627;28;20050;-67
2022/04/20 11:39:03;;;;;;;4.45;2.08;;;;;;;16.70;37.19;101214.38;5010941;28;20078;-67
2022/04/20 11:41:30;;;;;;;5.47;2.10;;;;;;;16.66;37.10;101212.91;5011118;28;20462;-67
2022/04/20 11:43:58;;;;;;;4.32;2.08;;;;;;;16.27;37.60;101200.56;5006804;28;20041;-67
2022/04/20 11:46:25;;;;;;;4.28;1.88;;;;;;;15.99;38.82;101206.88;5011437;28;20053;-67
2022/04/20 11:48:54;;;;;;;4.50;2.00;;;;;;;16.20;40.58;101205.44;5010299;28;20053;-67
2022/04/20 11:51:23;;;;;;;5.88;2.00;;;;;;;16.76;40.16;101219.25;5010886;28;20105;-67
2022/04/20 11:53:49;;;;;;;4.28;1.90;;;;;;;16.81;39.21;101201.25;4992799;28;20121;-67
2022/04/20 11:56:16;;;;;;;4.07;1.88;;;;;;;16.81;38.04;101199.44;4993514;28;20569;-67
2022/04/20 11:58:48;;;;;;;7.20;1.60;;;;;;;17.44;39.73;101191.31;5010750;28;20042;-67
2022/04/20 12:01:15;;;;;;;4.53;1.67;;;;;;;17.94;37.17;101195.56;5011222;28;20046;-67
2022/04/20 12:03:45;;;;;;;5.10;1.88;;;;;;;18.26;38.23;101195.75;5010921;28;20046;-67
2022/04/20 12:06:12;;;;;;;8.88;1.83;;;;;;;18.12;37.26;101190.66;5011341;28;20050;-67